createdAt,value
2022-09-29T00:02:09.548Z,2.85
2022-09-29T00:04:36.472Z,4.30
2022-09-29T00:07:03.465Z,3.65
2022-09-29T00:09:31.062Z,3.63
2022-09-29T00:12:00.475Z,3.70
2022-09-29T00:16:54.263Z,3.15
2022-09-29T00:19:22.143Z,3.80
2022-09-29T00:21:48.956Z,3.72
2022-09-29T00:24:16.724Z,3.92
2022-09-29T00:26:46.669Z,4.05
2022-09-29T00:29:13.655Z,4.55
2022-09-29T00:31:40.540Z,3.90
2022-09-29T00:34:07.386Z,4.70
2022-09-29T00:36:34.376Z,3.53
2022-09-29T00:39:01.228Z,4.20
2022-09-29T00:41:31.275Z,4.15
2022-09-29T00:44:01.319Z,4.60
2022-09-29T00:46:30.897Z,5.20
2022-09-29T00:49:01.792Z,3.95
2022-09-29T00:51:31.429Z,3.97
2022-09-29T00:53:59.233Z,4.20
2022-09-29T00:56:26.473Z,4.53
2022-09-29T00:58:55.019Z,4.68
2022-09-29T01:01:23.503Z,4.00
2022-09-29T01:03:55.636Z,4.43
2022-09-29T01:06:29.620Z,3.67
2022-09-29T01:09:06.644Z,4.28
2022-09-29T01:11:33.599Z,4.63
2022-09-29T01:14:05.176Z,4.13
2022-09-29T01:16:33.140Z,3.83
2022-09-29T01:19:02.752Z,4.05
2022-09-29T01:21:51.759Z,4.07
2022-09-29T01:24:37.533Z,3.55
2022-09-29T01:27:38.302Z,5.22
2022-09-29T01:30:48.851Z,5.13
2022-09-29T01:34:00.697Z,4.40
2022-09-29T01:37:01.230Z,4.50
2022-09-29T01:39:43.428Z,4.05
2022-09-29T01:42:19.867Z,4.13
2022-09-29T01:45:00.019Z,4.53
2022-09-29T01:47:42.370Z,4.32
2022-09-29T01:50:18.633Z,4.75
2022-09-29T01:52:51.471Z,4.60
2022-09-29T01:55:21.560Z,4.80
2022-09-29T01:58:10.412Z,4.50
2022-09-29T02:00:43.965Z,4.80
2022-09-29T02:03:36.845Z,4.65
2022-09-29T02:06:10.195Z,4.43
2022-09-29T02:08:42.379Z,4.47
2022-09-29T02:11:14.523Z,4.50
2022-09-29T02:13:57.752Z,4.85
2022-09-29T02:16:29.491Z,5.20
2022-09-29T02:19:08.496Z,5.35
2022-09-29T02:21:35.412Z,4.20
2022-09-29T02:24:02.258Z,5.30
2022-09-29T02:26:34.447Z,5.40
2022-09-29T02:29:06.441Z,5.32
2022-09-29T02:31:34.266Z,5.40
2022-09-29T02:34:02.942Z,5.32
2022-09-29T02:36:51.729Z,6.03
2022-09-29T02:39:44.020Z,5.43
2022-09-29T02:42:19.380Z,6.13
2022-09-29T02:45:15.191Z,6.10
2022-09-29T02:48:00.561Z,7.57
2022-09-29T02:50:30.577Z,7.32
2022-09-29T02:53:15.527Z,7.40
2022-09-29T02:56:16.744Z,7.85
2022-09-29T02:59:04.437Z,7.85
2022-09-29T03:01:32.867Z,7.40
2022-09-29T03:04:04.199Z,7.55
2022-09-29T03:06:32.364Z,5.80
2022-09-29T03:08:59.127Z,5.13
2022-09-29T03:11:25.961Z,4.90
2022-09-29T03:13:52.763Z,4.95
2022-09-29T03:16:19.623Z,4.85
2022-09-29T03:18:46.738Z,4.95
2022-09-29T03:21:13.532Z,4.97
2022-09-29T03:23:40.440Z,5.82
2022-09-29T03:26:07.287Z,5.85
2022-09-29T03:28:34.087Z,5.45
2022-09-29T03:31:06.778Z,6.65
2022-09-29T03:33:33.773Z,6.00
2022-09-29T03:36:01.501Z,6.10
2022-09-29T03:38:28.551Z,7.30
2022-09-29T03:40:55.394Z,6.90
2022-09-29T03:43:22.315Z,7.57
2022-09-29T03:45:50.320Z,7.40
2022-09-29T03:48:22.965Z,7.32
2022-09-29T03:50:52.155Z,8.10
2022-09-29T03:53:18.969Z,8.38
2022-09-29T03:55:50.061Z,8.90
2022-09-29T03:58:17.570Z,7.88
2022-09-29T04:00:45.112Z,9.00
2022-09-29T04:03:12.110Z,9.13
2022-09-29T04:05:40.357Z,7.75
2022-09-29T04:08:08.287Z,7.97
2022-09-29T04:10:36.226Z,6.25
2022-09-29T04:13:03.632Z,6.60
2022-09-29T04:15:30.744Z,6.10
2022-09-29T04:17:57.653Z,6.20
2022-09-29T04:20:24.891Z,6.15
2022-09-29T04:22:51.740Z,5.95
2022-09-29T04:25:18.791Z,6.70
2022-09-29T04:27:45.759Z,5.85
2022-09-29T04:30:12.784Z,6.40
2022-09-29T04:32:39.652Z,6.03
2022-09-29T04:35:06.945Z,6.35
2022-09-29T04:37:33.901Z,7.22
2022-09-29T04:40:01.095Z,6.30
2022-09-29T04:42:27.856Z,7.13
2022-09-29T04:44:54.724Z,10.20
2022-09-29T04:47:21.512Z,7.10
2022-09-29T04:49:48.362Z,10.57
2022-09-29T04:52:15.382Z,8.07
2022-09-29T04:54:42.303Z,8.43
2022-09-29T04:57:10.674Z,8.23
2022-09-29T04:59:37.732Z,7.15
2022-09-29T05:02:04.732Z,8.25
2022-09-29T05:04:31.634Z,11.32
2022-09-29T05:06:58.519Z,9.45
2022-09-29T05:09:27.807Z,6.90
2022-09-29T05:11:56.800Z,9.73
2022-09-29T05:14:23.673Z,6.55
2022-09-29T05:16:50.536Z,10.80
2022-09-29T05:19:17.377Z,7.15
2022-09-29T05:21:44.240Z,9.07
2022-09-29T05:24:11.033Z,6.15
2022-09-29T05:26:37.924Z,22.15
2022-09-29T05:29:04.728Z,20.77
2022-09-29T05:31:32.019Z,5.47
2022-09-29T05:33:58.883Z,7.88
2022-09-29T05:36:25.739Z,5.07
2022-09-29T05:38:52.569Z,6.90
2022-09-29T05:41:22.678Z,6.60
2022-09-29T05:43:51.070Z,7.13
2022-09-29T05:46:19.460Z,7.90
2022-09-29T05:48:47.027Z,7.40
2022-09-29T05:51:19.468Z,6.35
2022-09-29T05:53:49.798Z,6.93
2022-09-29T05:56:21.854Z,6.63
2022-09-29T05:58:48.862Z,4.88
2022-09-29T06:01:18.424Z,6.18
2022-09-29T06:06:14.721Z,4.75
2022-09-29T06:11:23.857Z,6.10
2022-09-29T06:13:52.502Z,4.65
2022-09-29T06:16:21.983Z,6.90
2022-09-29T06:21:21.656Z,8.68
2022-09-29T06:23:48.518Z,5.55
2022-09-29T06:26:22.754Z,6.38
2022-09-29T06:28:50.750Z,5.15
2022-09-29T06:31:20.019Z,5.53
2022-09-29T06:33:47.486Z,6.53
2022-09-29T06:36:42.607Z,7.53
2022-09-29T06:39:12.158Z,5.85
2022-09-29T06:44:05.796Z,6.43
2022-09-29T06:46:32.659Z,7.13
2022-09-29T06:48:59.478Z,8.52
2022-09-29T06:51:39.568Z,9.48
2022-09-29T06:54:12.585Z,10.23
2022-09-29T06:59:07.671Z,9.43
2022-09-29T07:01:35.193Z,11.32
2022-09-29T07:04:02.573Z,9.45
2022-09-29T07:06:30.408Z,11.88
2022-09-29T07:08:58.899Z,11.35
2022-09-29T07:11:26.412Z,5.50
2022-09-29T07:13:55.020Z,5.90
2022-09-29T07:16:24.348Z,9.68
2022-09-29T07:18:52.407Z,7.13
2022-09-29T07:21:20.459Z,11.70
2022-09-29T07:23:48.063Z,6.82
2022-09-29T07:26:19.435Z,16.13
2022-09-29T07:28:47.512Z,10.80
2022-09-29T07:31:17.423Z,10.43
2022-09-29T07:33:45.291Z,9.30
2022-09-29T07:36:13.766Z,11.35
2022-09-29T07:38:40.797Z,16.25
2022-09-29T07:41:13.329Z,19.08
2022-09-29T07:43:40.253Z,15.73
2022-09-29T07:46:08.454Z,23.05
2022-09-29T07:48:36.558Z,18.52
2022-09-29T07:51:05.918Z,21.85
2022-09-29T07:53:34.436Z,17.40
2022-09-29T07:56:28.223Z,15.32
2022-09-29T07:58:57.419Z,20.08
2022-09-29T08:01:24.719Z,19.38
2022-09-29T08:03:54.455Z,10.50
2022-09-29T08:06:22.875Z,12.73
2022-09-29T08:09:00.144Z,16.23
2022-09-29T08:11:32.306Z,14.98
2022-09-29T08:16:27.525Z,14.82
2022-09-29T08:18:54.919Z,19.30
2022-09-29T08:21:21.697Z,12.00
2022-09-29T08:23:48.709Z,10.48
2022-09-29T08:26:18.623Z,18.75
2022-09-29T08:28:47.134Z,17.33
2022-09-29T08:31:20.512Z,9.43
2022-09-29T08:33:51.708Z,12.38
2022-09-29T08:36:20.402Z,17.17
2022-09-29T08:38:49.415Z,15.38
2022-09-29T08:41:27.697Z,12.43
2022-09-29T08:44:35.801Z,12.48
2022-09-29T08:47:24.201Z,13.90
2022-09-29T08:49:54.590Z,15.88
2022-09-29T08:52:48.881Z,13.52
2022-09-29T08:55:21.501Z,17.05
2022-09-29T08:57:54.689Z,14.90
2022-09-29T09:00:29.301Z,14.60
2022-09-29T09:03:41.015Z,15.32
2022-09-29T09:06:11.305Z,9.35
2022-09-29T09:09:06.544Z,8.93
2022-09-29T09:12:07.297Z,10.60
2022-09-29T09:14:58.632Z,8.57
2022-09-29T09:17:44.545Z,10.57
2022-09-29T09:20:33.037Z,13.38
2022-09-29T09:23:06.416Z,12.25
2022-09-29T09:25:34.642Z,12.40
2022-09-29T09:28:16.391Z,12.85
2022-09-29T09:31:03.336Z,14.18
2022-09-29T09:33:32.384Z,13.15
2022-09-29T09:36:32.278Z,14.05
2022-09-29T09:39:18.230Z,15.68
2022-09-29T09:41:49.682Z,12.88
2022-09-29T09:44:41.091Z,13.23
2022-09-29T09:47:31.335Z,13.45
2022-09-29T09:50:03.200Z,12.35
2022-09-29T09:52:51.456Z,12.98
2022-09-29T09:55:30.263Z,11.95
2022-09-29T09:58:22.253Z,14.05
2022-09-29T10:00:54.384Z,10.70
2022-09-29T10:03:21.344Z,10.77
2022-09-29T10:05:49.652Z,14.05
2022-09-29T10:08:25.731Z,10.20
2022-09-29T10:10:58.598Z,13.10
2022-09-29T10:13:28.689Z,12.15
2022-09-29T10:16:16.571Z,11.60
2022-09-29T10:18:48.779Z,11.85
2022-09-29T10:21:23.447Z,10.00
2022-09-29T10:23:56.315Z,10.55
2022-09-29T10:26:40.585Z,9.90
2022-09-29T10:29:23.835Z,9.40
2022-09-29T10:32:17.065Z,10.05
2022-09-29T10:34:49.762Z,7.85
2022-09-29T10:37:38.785Z,8.57
2022-09-29T10:40:08.564Z,8.77
2022-09-29T10:42:37.634Z,8.05
2022-09-29T10:45:23.422Z,6.82
2022-09-29T10:47:59.587Z,8.02
2022-09-29T10:50:28.988Z,8.00
2022-09-29T10:52:57.943Z,7.70
2022-09-29T10:55:27.443Z,8.20
2022-09-29T11:00:38.334Z,8.23
2022-09-29T11:03:17.032Z,7.03
2022-09-29T11:06:13.407Z,7.18
2022-09-29T11:09:01.825Z,6.65
2022-09-29T11:11:33.948Z,6.93
2022-09-29T11:14:01.223Z,6.80
2022-09-29T11:16:30.562Z,6.93
2022-09-29T11:21:52.342Z,7.65
2022-09-29T11:27:32.650Z,6.30
2022-09-29T11:30:11.514Z,7.38
2022-09-29T11:33:05.295Z,6.70
2022-09-29T11:35:45.123Z,6.60
2022-09-29T11:38:36.869Z,6.03
2022-09-29T11:41:35.194Z,6.15
2022-09-29T11:44:29.060Z,7.20
2022-09-29T11:47:08.433Z,6.53
2022-09-29T11:49:56.474Z,6.20
2022-09-29T11:52:38.821Z,6.22
2022-09-29T11:55:23.853Z,6.18
2022-09-29T11:58:09.487Z,6.28
2022-09-29T12:00:39.296Z,6.03
2022-09-29T12:03:32.201Z,6.53
2022-09-29T12:06:04.859Z,6.35
2022-09-29T12:08:54.132Z,6.85
2022-09-29T12:11:44.269Z,7.78
2022-09-29T12:14:27.303Z,7.57
2022-09-29T12:17:01.701Z,7.55
2022-09-29T12:19:32.911Z,7.93
2022-09-29T12:22:03.864Z,7.15
2022-09-29T12:24:41.438Z,6.82
2022-09-29T12:27:15.121Z,7.45
2022-09-29T12:29:46.954Z,6.75
2022-09-29T12:32:23.405Z,6.95
2022-09-29T12:35:19.074Z,6.90
2022-09-29T12:38:07.776Z,5.53
2022-09-29T12:41:03.509Z,4.60
2022-09-29T12:43:39.529Z,5.05
2022-09-29T12:46:22.797Z,4.40
2022-09-29T12:49:16.894Z,4.78
2022-09-29T12:51:52.445Z,4.88
2022-09-29T12:54:59.518Z,5.63
2022-09-29T12:57:38.511Z,6.45
2022-09-29T13:00:11.887Z,5.50
2022-09-29T13:03:03.696Z,5.05
2022-09-29T13:05:45.663Z,4.60
2022-09-29T13:08:27.849Z,4.18
2022-09-29T13:11:16.439Z,4.97
2022-09-29T13:14:12.822Z,6.00
2022-09-29T13:16:51.717Z,5.32
2022-09-29T13:19:58.475Z,5.47
2022-09-29T13:22:44.899Z,4.25
2022-09-29T13:25:26.900Z,4.80
2022-09-29T13:27:56.852Z,3.97
2022-09-29T13:30:35.435Z,4.20
2022-09-29T13:33:09.787Z,4.05
2022-09-29T13:35:42.836Z,5.65
2022-09-29T13:38:25.965Z,5.35
2022-09-29T13:41:12.375Z,5.07
2022-09-29T13:44:01.941Z,5.13
2022-09-29T13:46:31.950Z,5.23
2022-09-29T13:49:13.945Z,5.03
2022-09-29T13:51:52.715Z,4.78
2022-09-29T13:54:24.105Z,4.97
2022-09-29T13:56:58.543Z,4.47
2022-09-29T13:59:26.437Z,4.38
2022-09-29T14:01:53.561Z,3.35
2022-09-29T14:04:52.684Z,3.58
2022-09-29T14:07:49.766Z,3.42
2022-09-29T14:10:41.270Z,2.97
2022-09-29T14:13:11.071Z,2.03
2022-09-29T14:15:43.804Z,2.63
2022-09-29T14:18:23.136Z,2.72
2022-09-29T14:21:05.250Z,2.20
2022-09-29T14:23:51.882Z,2.05
2022-09-29T14:26:43.819Z,2.60
2022-09-29T14:29:17.742Z,2.50
2022-09-29T14:31:49.664Z,2.60
2022-09-29T14:34:18.060Z,2.33
2022-09-29T14:36:48.401Z,2.88
2022-09-29T14:39:31.890Z,2.28
2022-09-29T14:41:58.904Z,2.67
2022-09-29T14:44:48.169Z,3.10
2022-09-29T14:47:45.821Z,3.47
2022-09-29T14:50:58.943Z,3.58
2022-09-29T14:53:52.068Z,3.20
2022-09-29T14:56:37.553Z,3.08
2022-09-29T14:59:22.729Z,2.78
2022-09-29T15:02:19.568Z,2.67
2022-09-29T15:04:48.779Z,2.63
2022-09-29T15:07:25.393Z,2.70
2022-09-29T15:09:59.976Z,2.50
2022-09-29T15:12:29.304Z,2.42
2022-09-29T15:15:00.206Z,2.47
2022-09-29T15:17:54.664Z,2.92
2022-09-29T15:20:34.642Z,2.83
2022-09-29T15:23:49.468Z,2.88
2022-09-29T15:26:18.697Z,2.80
2022-09-29T15:28:45.962Z,2.80
2022-09-29T15:31:27.490Z,3.22
2022-09-29T15:33:54.662Z,2.72
2022-09-29T15:36:26.544Z,3.00
2022-09-29T15:39:04.161Z,2.70
2022-09-29T15:41:33.496Z,2.92
2022-09-29T15:44:18.028Z,3.03
2022-09-29T15:46:50.865Z,3.75
2022-09-29T15:49:21.750Z,2.65
2022-09-29T15:51:57.180Z,2.88
2022-09-29T15:54:25.924Z,3.22
2022-09-29T15:57:11.214Z,3.20
2022-09-29T15:59:53.316Z,2.88
2022-09-29T16:02:42.065Z,3.25
2022-09-29T16:05:18.590Z,3.40
2022-09-29T16:08:00.399Z,4.00
2022-09-29T16:10:30.439Z,3.60
2022-09-29T16:13:00.988Z,3.40
2022-09-29T16:15:35.213Z,3.13
2022-09-29T16:18:20.369Z,3.72
2022-09-29T16:20:48.107Z,3.38
2022-09-29T16:23:27.162Z,3.33
2022-09-29T16:26:12.002Z,3.50
2022-09-29T16:28:57.974Z,2.90
2022-09-29T16:31:28.493Z,3.00
2022-09-29T16:33:57.894Z,3.50
2022-09-29T16:36:34.513Z,2.80
2022-09-29T16:39:02.086Z,2.35
2022-09-29T16:41:37.861Z,2.88
2022-09-29T16:44:26.500Z,2.60
2022-09-29T16:46:59.491Z,2.33
2022-09-29T16:49:33.388Z,1.95
2022-09-29T16:52:20.465Z,1.90
2022-09-29T16:54:48.003Z,1.73
2022-09-29T16:57:31.084Z,1.85
2022-09-29T17:00:00.134Z,1.50
2022-09-29T17:02:28.347Z,1.40
2022-09-29T17:04:56.796Z,1.20
2022-09-29T17:07:26.509Z,1.52
2022-09-29T17:09:59.037Z,1.30
2022-09-29T17:12:28.703Z,1.38
2022-09-29T17:14:55.484Z,1.20
2022-09-29T17:17:25.731Z,1.40
2022-09-29T17:19:58.612Z,1.20
2022-09-29T17:22:28.383Z,1.17
2022-09-29T17:24:56.133Z,1.17
2022-09-29T17:27:42.891Z,1.15
2022-09-29T17:30:11.926Z,1.10
2022-09-29T17:32:38.867Z,1.30
2022-09-29T17:35:07.681Z,0.98
2022-09-29T17:37:40.236Z,1.20
2022-09-29T17:40:33.210Z,1.20
2022-09-29T17:43:01.935Z,1.33
2022-09-29T17:45:30.549Z,1.10
2022-09-29T17:48:00.126Z,1.30
2022-09-29T17:50:44.057Z,1.30
2022-09-29T17:53:17.535Z,1.20
2022-09-29T17:55:50.040Z,1.20
2022-09-29T17:58:18.878Z,1.20
2022-09-29T18:00:49.255Z,1.55
2022-09-29T18:03:18.366Z,1.77
2022-09-29T18:05:57.123Z,1.20
2022-09-29T18:08:25.955Z,1.38
2022-09-29T18:10:55.386Z,1.20
2022-09-29T18:13:24.856Z,1.27
2022-09-29T18:15:51.764Z,1.33
2022-09-29T18:18:21.926Z,1.23
2022-09-29T18:20:50.702Z,1.52
2022-09-29T18:23:19.372Z,1.40
2022-09-29T18:25:48.524Z,1.60
2022-09-29T18:28:17.084Z,1.20
2022-09-29T18:30:47.468Z,1.50
2022-09-29T18:33:18.855Z,1.55
2022-09-29T18:35:51.463Z,1.60
2022-09-29T18:38:18.443Z,1.27
2022-09-29T18:40:47.167Z,1.50
2022-09-29T18:43:14.661Z,1.50
2022-09-29T18:45:43.462Z,1.60
2022-09-29T18:48:15.353Z,1.10
2022-09-29T18:50:44.783Z,1.98
2022-09-29T18:53:12.770Z,1.70
2022-09-29T18:55:41.725Z,2.00
2022-09-29T18:58:17.533Z,3.17
2022-09-29T19:00:53.971Z,2.28
2022-09-29T19:03:27.145Z,3.38
2022-09-29T19:05:57.283Z,3.17
2022-09-29T19:08:24.345Z,2.28
2022-09-29T19:10:57.671Z,2.40
2022-09-29T19:13:25.296Z,1.83
2022-09-29T19:15:57.113Z,2.25
2022-09-29T19:18:24.902Z,2.20
2022-09-29T19:20:55.426Z,2.17
2022-09-29T19:23:23.868Z,2.17
2022-09-29T19:25:52.159Z,2.30
2022-09-29T19:28:20.841Z,2.20
2022-09-29T19:30:48.378Z,2.55
2022-09-29T19:33:19.626Z,2.72
2022-09-29T19:35:50.585Z,2.70
2022-09-29T19:38:18.859Z,3.05
2022-09-29T19:40:46.914Z,2.60
2022-09-29T19:43:14.748Z,3.00
2022-09-29T19:45:43.426Z,3.35
2022-09-29T19:48:14.721Z,2.33
2022-09-29T19:51:00.278Z,2.30
2022-09-29T19:53:29.699Z,3.10
2022-09-29T19:55:56.750Z,2.50
2022-09-29T19:58:24.165Z,2.88
2022-09-29T20:00:57.384Z,2.80
2022-09-29T20:03:24.335Z,2.40
2022-09-29T20:05:51.429Z,2.63
2022-09-29T20:08:18.386Z,2.28
2022-09-29T20:10:45.322Z,2.50
2022-09-29T20:13:14.257Z,2.10
2022-09-29T20:15:46.489Z,2.65
2022-09-29T20:18:16.337Z,2.95
2022-09-29T20:20:43.629Z,3.03
2022-09-29T20:23:10.465Z,2.85
2022-09-29T20:25:37.253Z,2.40
2022-09-29T20:28:08.774Z,2.47
2022-09-29T20:30:38.058Z,3.95
2022-09-29T20:33:04.917Z,3.42
2022-09-29T20:35:31.816Z,4.50
2022-09-29T20:37:58.692Z,4.65
2022-09-29T20:40:25.593Z,4.32
2022-09-29T20:42:52.572Z,4.63
2022-09-29T20:45:19.759Z,4.28
2022-09-29T20:47:46.717Z,4.85
2022-09-29T20:50:14.685Z,2.55
2022-09-29T20:52:42.644Z,2.72
2022-09-29T20:55:11.933Z,3.50
2022-09-29T20:57:41.751Z,3.50
2022-09-29T21:00:13.396Z,2.65
2022-09-29T21:02:40.585Z,3.53
2022-09-29T21:05:07.730Z,4.57
2022-09-29T21:07:38.232Z,4.07
2022-09-29T21:10:06.245Z,3.67
2022-09-29T21:12:34.100Z,5.10
2022-09-29T21:15:02.258Z,4.75
2022-09-29T21:17:29.972Z,4.97
2022-09-29T21:19:57.477Z,5.95
2022-09-29T21:22:27.723Z,6.07
2022-09-29T21:24:55.080Z,5.65
2022-09-29T21:27:21.928Z,6.13
2022-09-29T21:29:48.847Z,6.13
2022-09-29T21:32:15.687Z,5.50
2022-09-29T21:34:42.521Z,4.07
2022-09-29T21:37:10.129Z,3.55
2022-09-29T21:39:37.103Z,5.70
2022-09-29T21:42:04.428Z,4.32
2022-09-29T21:44:31.253Z,4.28
2022-09-29T21:46:58.144Z,5.35
2022-09-29T21:49:25.092Z,6.22
2022-09-29T21:51:52.197Z,5.90
2022-09-29T21:54:25.042Z,5.40
2022-09-29T21:56:52.875Z,5.55
2022-09-29T21:59:22.553Z,4.85
2022-09-29T22:01:50.722Z,5.13
2022-09-29T22:04:18.422Z,5.35
2022-09-29T22:06:45.809Z,4.93
2022-09-29T22:09:18.870Z,4.95
2022-09-29T22:11:46.598Z,4.18
2022-09-29T22:14:14.442Z,5.25
2022-09-29T22:16:41.651Z,5.70
2022-09-29T22:19:25.137Z,5.90
2022-09-29T22:21:53.718Z,4.43
2022-09-29T22:24:20.843Z,4.57
2022-09-29T22:26:47.958Z,5.78
2022-09-29T22:29:14.957Z,4.78
2022-09-29T22:31:41.947Z,4.53
2022-09-29T22:34:11.286Z,5.32
2022-09-29T22:36:38.215Z,4.43
2022-09-29T22:39:06.925Z,5.95
2022-09-29T22:41:36.838Z,5.18
2022-09-29T22:44:04.232Z,3.55
2022-09-29T22:46:32.031Z,7.30
2022-09-29T22:48:59.486Z,4.32
2022-09-29T22:51:26.791Z,4.40
2022-09-29T22:53:53.646Z,4.32
2022-09-29T22:56:28.582Z,4.47
2022-09-29T22:59:00.421Z,3.95
2022-09-29T23:01:27.701Z,6.18
2022-09-29T23:03:54.639Z,6.70
2022-09-29T23:06:21.627Z,4.40
2022-09-29T23:08:48.434Z,3.15
2022-09-29T23:11:20.145Z,4.63
2022-09-29T23:13:47.441Z,3.30
2022-09-29T23:16:17.690Z,4.53
2022-09-29T23:18:46.061Z,4.47
2022-09-29T23:21:20.712Z,4.18
2022-09-29T23:23:51.834Z,5.35
2022-09-29T23:26:18.766Z,6.45
2022-09-29T23:28:45.643Z,4.50
2022-09-29T23:31:12.580Z,4.40
2022-09-29T23:33:39.562Z,5.50
2022-09-29T23:36:15.470Z,3.60
2022-09-29T23:39:02.757Z,6.65
2022-09-29T23:41:30.954Z,5.47
2022-09-29T23:44:00.198Z,3.55
2022-09-29T23:46:31.812Z,4.03
2022-09-29T23:48:59.771Z,3.42
2022-09-29T23:51:27.603Z,4.13
2022-09-29T23:53:54.394Z,3.80
2022-09-29T23:56:21.531Z,3.72
2022-09-29T23:58:48.415Z,5.05
